Time;durP1;ratioP1;P1;durP2;ratioP2;P2;SDS_P1;SDS_P2;PMS_P1;PMS_P2;Temp;Humidity;BMP_temperature;BMP_pressure;BME280_temperature;BME280_humidity;BME280_pressure;Samples;Min_cycle;Max_cycle;Signal;HPM_P1;HPM_P2
2023/01/15 00:01:42;;;;;;;;;2.33;0.00;;;;;9.84;100.00;100093.19;5077224;27;45751;-81
2023/01/15 00:04:10;;;;;;;;;3.33;1.00;;;;;9.84;100.00;100083.06;5088947;27;46633;-80
2023/01/15 00:06:38;;;;;;;;;2.67;0.00;;;;;9.82;100.00;100084.31;5068166;27;45361;-81
2023/01/15 00:09:05;;;;;;;;;0.00;0.00;;;;;9.78;100.00;100085.84;5095217;27;45759;-81
2023/01/15 00:11:31;;;;;;;;;2.00;1.00;;;;;9.77;100.00;100082.25;5104826;27;45774;-80
2023/01/15 00:13:57;;;;;;;;;0.00;0.00;;;;;9.72;100.00;100082.91;5087229;27;45773;-79
2023/01/15 00:16:24;;;;;;;;;0.00;0.00;;;;;9.76;100.00;100093.44;5073014;27;45777;-80
2023/01/15 00:18:51;;;;;;;;;3.00;0.00;;;;;9.68;100.00;100083.56;5081157;27;45793;-79
2023/01/15 00:21:16;;;;;;;;;2.00;0.00;;;;;9.70;100.00;100095.13;5080303;27;46394;-80
2023/01/15 00:29:14;;;;;;;;;0.33;0.33;;;;;9.71;100.00;100086.72;5095897;27;45514;-80
2023/01/15 00:31:40;;;;;;;;;0.00;0.00;;;;;9.71;100.00;100089.47;5096194;27;45790;-81
2023/01/15 00:34:06;;;;;;;;;0.00;0.00;;;;;9.67;100.00;100088.22;5102239;27;45741;-80
2023/01/15 00:36:33;;;;;;;;;0.00;0.00;;;;;9.65;100.00;100076.63;5073755;27;45409;-80
2023/01/15 00:38:59;;;;;;;;;0.33;0.33;;;;;9.66;100.00;100077.50;5082268;27;45247;-80
2023/01/15 00:41:24;;;;;;;;;0.33;0.33;;;;;9.67;100.00;100090.97;5091569;27;45814;-79
2023/01/15 00:43:51;;;;;;;;;1.67;1.00;;;;;9.64;100.00;100080.44;5060236;27;47366;-79
2023/01/15 00:46:17;;;;;;;;;0.00;0.00;;;;;9.64;100.00;100076.84;5077900;27;45511;-79
2023/01/15 00:48:43;;;;;;;;;0.00;0.00;;;;;9.59;100.00;100091.19;5087016;27;45488;-79
2023/01/15 00:51:08;;;;;;;;;0.67;0.33;;;;;9.59;100.00;100093.13;5097823;27;45419;-81
2023/01/15 00:53:33;;;;;;;;;0.00;0.00;;;;;9.60;100.00;100087.41;5081414;27;45461;-79
2023/01/15 00:55:59;;;;;;;;;0.00;0.00;;;;;9.61;100.00;100071.81;5097596;27;45425;-80
2023/01/15 00:58:24;;;;;;;;;1.00;0.00;;;;;9.57;100.00;100071.44;5092763;27;45508;-80
2023/01/15 01:00:57;;;;;;;;;0.00;0.00;;;;;9.56;100.00;100075.22;5095503;27;45866;-80
2023/01/15 01:03:23;;;;;;;;;0.67;0.00;;;;;9.56;100.00;100072.47;5099837;27;45689;-80
2023/01/15 01:05:49;;;;;;;;;3.67;2.00;;;;;9.59;100.00;100079.44;5086662;27;45925;-80
2023/01/15 01:08:15;;;;;;;;;1.00;1.00;;;;;9.61;100.00;100086.38;5097087;27;45690;-82
2023/01/15 01:10:41;;;;;;;;;0.67;0.00;;;;;9.59;100.00;100069.31;5087744;27;45841;-78
2023/01/15 01:13:06;;;;;;;;;2.00;0.00;;;;;9.59;100.00;100074.78;5087338;27;48024;-80
2023/01/15 01:15:33;;;;;;;;;4.00;2.00;;;;;9.61;100.00;100072.69;5093404;27;45495;-79
2023/01/15 01:17:59;;;;;;;;;0.67;0.67;;;;;9.64;100.00;100076.84;5071564;27;45457;-80
2023/01/15 01:20:25;;;;;;;;;1.33;0.33;;;;;9.63;100.00;100084.25;5091567;27;45743;-80
2023/01/15 01:22:51;;;;;;;;;1.00;1.00;;;;;9.60;100.00;100089.31;5093100;27;45749;-80
2023/01/15 01:25:16;;;;;;;;;1.00;1.00;;;;;9.59;100.00;100085.72;5088600;27;45406;-80
2023/01/15 01:27:46;;;;;;;;;1.67;1.67;;;;;9.65;100.00;100084.84;5092726;27;45452;-79
2023/01/15 01:30:13;;;;;;;;;0.00;0.00;;;;;9.63;100.00;100080.66;5049921;27;46100;-80
2023/01/15 01:32:39;;;;;;;;;1.33;1.33;;;;;9.62;100.00;100090.75;5095460;27;45346;-79
2023/01/15 01:35:05;;;;;;;;;3.33;1.00;;;;;9.57;100.00;100087.03;5093717;27;45769;-80
2023/01/15 01:37:30;;;;;;;;;0.00;0.00;;;;;9.60;100.00;100103.84;5093906;27;45458;-81
2023/01/15 01:39:56;;;;;;;;;0.00;0.00;;;;;9.57;100.00;100107.00;5084979;27;45884;-81
2023/01/15 01:42:22;;;;;;;;;1.00;1.00;;;;;9.43;100.00;100094.44;5090794;27;46282;-80
2023/01/15 01:44:50;;;;;;;;;2.00;1.00;;;;;9.56;100.00;100108.06;5103006;27;45495;-80
2023/01/15 01:47:23;;;;;;;;;0.67;0.00;;;;;9.57;100.00;100093.31;5109556;27;46656;-80
2023/01/15 01:49:56;;;;;;;;;1.00;0.00;;;;;9.51;100.00;100094.22;5077735;27;47149;-80
2023/01/15 01:52:31;;;;;;;;;0.67;0.67;;;;;9.47;100.00;100092.94;5100510;27;46476;-79
2023/01/15 01:54:58;;;;;;;;;1.33;1.33;;;;;9.43;100.00;100092.56;5075897;27;46012;-80
2023/01/15 01:57:24;;;;;;;;;1.00;0.00;;;;;9.50;100.00;100100.72;5063912;27;45907;-80
2023/01/15 01:59:50;;;;;;;;;0.00;0.00;;;;;9.47;100.00;100103.91;5091997;27;46628;-80
2023/01/15 02:02:19;;;;;;;;;0.00;0.00;;;;;9.52;100.00;100107.69;5083615;27;48300;-82
2023/01/15 02:04:45;;;;;;;;;2.00;0.00;;;;;9.39;100.00;100085.00;5083935;27;45758;-81
2023/01/15 02:07:11;;;;;;;;;1.00;1.00;;;;;9.41;100.00;100089.19;5095389;27;45398;-81
2023/01/15 02:09:37;;;;;;;;;0.67;0.67;;;;;9.47;100.00;100117.59;5105453;27;45563;-80
2023/01/15 02:12:15;;;;;;;;;0.33;0.33;;;;;9.46;100.00;100116.75;5078218;27;46850;-80
2023/01/15 02:14:58;;;;;;;;;0.00;0.00;;;;;9.45;100.00;100131.50;5086086;27;45869;-80
2023/01/15 02:17:56;;;;;;;;;1.67;0.00;;;;;9.42;100.00;100139.31;5066770;27;45731;-79
2023/01/15 02:20:34;;;;;;;;;0.00;0.00;;;;;9.32;100.00;100113.22;5088588;27;45629;-79
2023/01/15 02:23:14;;;;;;;;;0.67;0.67;;;;;9.26;100.00;100114.09;5100805;27;45778;-80
2023/01/15 02:25:52;;;;;;;;;2.33;1.00;;;;;9.39;100.00;100134.28;5077737;27;45551;-81
2023/01/15 02:28:33;;;;;;;;;0.33;0.33;;;;;9.37;100.00;100148.13;5080768;27;45670;-81
2023/01/15 02:31:08;;;;;;;;;0.00;0.00;;;;;9.36;100.00;100152.78;5086976;27;45707;-79
2023/01/15 02:33:44;;;;;;;;;2.00;0.00;;;;;9.35;100.00;100161.22;5072619;27;45929;-79
2023/01/15 02:36:14;;;;;;;;;0.00;0.00;;;;;9.31;100.00;100133.44;5053151;28;45646;-82
2023/01/15 02:38:46;;;;;;;;;0.00;0.00;;;;;9.31;100.00;100144.41;5084739;27;45746;-80
2023/01/15 02:41:17;;;;;;;;;1.00;0.00;;;;;9.28;100.00;100150.31;5094461;27;45512;-79
2023/01/15 02:43:48;;;;;;;;;0.00;0.00;;;;;9.37;100.00;100159.09;5078017;27;45599;-80
2023/01/15 02:46:16;;;;;;;;;0.00;0.00;;;;;9.31;100.00;100149.88;5079048;27;45743;-81
2023/01/15 02:48:45;;;;;;;;;0.00;0.00;;;;;9.39;100.00;100150.69;5096922;27;45397;-79
2023/01/15 02:51:16;;;;;;;;;0.00;0.00;;;;;9.34;100.00;100165.84;5088409;27;45583;-80
2023/01/15 02:53:45;;;;;;;;;1.00;0.00;;;;;9.40;100.00;100164.16;5093504;27;45335;-81
2023/01/15 02:56:16;;;;;;;;;3.00;1.00;;;;;9.33;100.00;100153.22;5090239;27;45875;-79
2023/01/15 02:58:43;;;;;;;;;1.00;0.00;;;;;9.43;100.00;100168.34;5092965;27;45794;-80
2023/01/15 03:01:25;;;;;;;;;3.00;0.00;;;;;9.38;100.00;100176.38;5078933;27;45451;-78
2023/01/15 03:04:12;;;;;;;;;2.00;0.00;;;;;9.35;100.00;100199.53;5083901;27;46444;-79
2023/01/15 03:06:43;;;;;;;;;0.67;0.00;;;;;9.34;100.00;100190.47;5064644;27;45793;-78
2023/01/15 03:09:09;;;;;;;;;1.00;0.00;;;;;9.32;100.00;100189.00;5103180;27;45767;-77
2023/01/15 03:11:42;;;;;;;;;0.33;0.00;;;;;9.29;100.00;100189.44;5094165;27;45411;-81
2023/01/15 03:14:27;;;;;;;;;2.00;0.00;;;;;9.15;100.00;100170.31;5095761;27;45874;-79
2023/01/15 03:16:57;;;;;;;;;0.67;0.00;;;;;9.30;100.00;100191.97;5097164;27;45654;-80
2023/01/15 03:19:28;;;;;;;;;1.00;1.00;;;;;9.29;100.00;100190.25;5097861;27;45608;-80
2023/01/15 03:22:08;;;;;;;;;0.00;0.00;;;;;9.34;100.00;100182.28;5097899;27;45304;-80
2023/01/15 03:24:47;;;;;;;;;0.00;0.00;;;;;9.38;100.00;100182.66;5098052;27;45842;-80
2023/01/15 03:27:14;;;;;;;;;0.00;0.00;;;;;9.32;100.00;100198.03;5098635;27;45782;-79
2023/01/15 03:29:46;;;;;;;;;0.00;0.00;;;;;9.29;100.00;100201.22;5084520;27;45371;-80
2023/01/15 03:32:12;;;;;;;;;1.00;1.00;;;;;9.31;100.00;100206.47;5090000;27;45554;-79
2023/01/15 03:34:50;;;;;;;;;3.00;0.00;;;;;9.29;100.00;100201.22;5097858;27;45701;-79
2023/01/15 03:37:16;;;;;;;;;0.00;0.00;;;;;9.28;100.00;100209.63;5098946;27;45903;-80
2023/01/15 03:39:42;;;;;;;;;1.00;0.00;;;;;9.20;100.00;100180.63;5099552;27;45725;-79
2023/01/15 03:42:24;;;;;;;;;0.67;0.00;;;;;9.14;100.00;100184.19;5094040;27;45479;-79
2023/01/15 03:44:52;;;;;;;;;0.00;0.00;;;;;9.10;100.00;100175.59;5078140;27;48495;-80
2023/01/15 03:47:41;;;;;;;;;0.00;0.00;;;;;8.99;100.00;100166.13;5102320;27;45466;-79
2023/01/15 03:50:26;;;;;;;;;0.00;0.00;;;;;9.04;100.00;100172.84;5106305;27;45562;-79
2023/01/15 03:53:07;;;;;;;;;0.00;0.00;;;;;8.99;100.00;100174.31;5096882;27;46314;-78
2023/01/15 03:55:46;;;;;;;;;0.00;0.00;;;;;8.96;100.00;100176.66;5088693;27;46583;-79
2023/01/15 03:58:27;;;;;;;;;0.00;0.00;;;;;8.94;100.00;100186.97;5097559;27;45419;-78
2023/01/15 04:00:58;;;;;;;;;1.00;0.00;;;;;8.86;100.00;100184.44;5087184;27;45618;-80
2023/01/15 04:03:27;;;;;;;;;0.00;0.00;;;;;8.77;100.00;100164.69;5067800;27;47222;-78
2023/01/15 04:05:56;;;;;;;;;0.00;0.00;;;;;8.80;100.00;100164.25;5076117;27;47562;-79
2023/01/15 04:08:25;;;;;;;;;0.00;0.00;;;;;8.78;100.00;100169.09;5086580;27;45530;-80
2023/01/15 04:10:56;;;;;;;;;2.00;0.00;;;;;8.72;100.00;100168.06;5092243;27;45388;-79
2023/01/15 04:13:22;;;;;;;;;0.00;0.00;;;;;8.70;100.00;100142.81;5097076;27;45542;-80
2023/01/15 04:15:49;;;;;;;;;0.00;0.00;;;;;8.71;100.00;100144.50;5098011;27;45409;-80
2023/01/15 04:18:14;;;;;;;;;2.00;0.00;;;;;8.63;100.00;100131.88;5086464;27;45555;-80
2023/01/15 04:20:40;;;;;;;;;0.00;0.00;;;;;8.69;100.00;100156.72;5086162;27;45718;-79
2023/01/15 04:23:06;;;;;;;;;0.00;0.00;;;;;8.69;100.00;100151.25;5104968;27;45397;-82
2023/01/15 04:25:31;;;;;;;;;0.00;0.00;;;;;8.68;100.00;100157.75;5101778;27;45483;-78
2023/01/15 04:27:57;;;;;;;;;0.00;0.00;;;;;8.66;100.00;100158.78;5098391;27;46283;-80
2023/01/15 04:30:22;;;;;;;;;1.00;0.00;;;;;8.62;100.00;100154.81;5100290;27;45409;-79
2023/01/15 04:32:49;;;;;;;;;0.00;0.00;;;;;8.64;100.00;100166.38;5107921;27;45758;-80
2023/01/15 04:35:15;;;;;;;;;1.00;0.00;;;;;8.60;100.00;100176.03;5074949;27;45493;-81
2023/01/15 04:37:41;;;;;;;;;0.00;0.00;;;;;8.60;100.00;100181.50;5077237;27;45755;-79
2023/01/15 04:40:07;;;;;;;;;1.00;0.00;;;;;8.50;100.00;100170.16;5096185;27;45577;-79
2023/01/15 04:45:17;;;;;;;;;0.00;0.00;;;;;8.62;100.00;100206.75;5094208;27;45746;-81
2023/01/15 04:47:43;;;;;;;;;0.00;0.00;;;;;8.60;100.00;100203.38;5079759;27;45484;-80
2023/01/15 04:50:09;;;;;;;;;1.00;0.00;;;;;8.48;100.00;100194.13;5096493;27;45403;-80
2023/01/15 04:52:35;;;;;;;;;0.00;0.00;;;;;8.48;100.00;100194.94;5095485;27;45717;-79
2023/01/15 04:55:01;;;;;;;;;0.00;0.00;;;;;8.56;100.00;100213.06;5096010;27;45659;-81
2023/01/15 04:57:26;;;;;;;;;0.00;0.00;;;;;8.56;100.00;100196.66;5090363;27;45416;-80
2023/01/15 04:59:51;;;;;;;;;1.00;0.00;;;;;8.58;100.00;100212.84;5069996;27;45387;-79
2023/01/15 05:02:17;;;;;;;;;0.00;0.00;;;;;8.48;100.00;100199.59;5094773;27;45686;-81
2023/01/15 05:04:42;;;;;;;;;1.00;0.00;;;;;8.41;100.00;100182.31;5075159;27;48395;-80
2023/01/15 05:07:08;;;;;;;;;0.00;0.00;;;;;8.51;100.00;100214.72;5100401;27;45862;-81
2023/01/15 05:09:34;;;;;;;;;0.00;0.00;;;;;8.45;100.00;100211.78;5075683;27;45873;-80
2023/01/15 05:11:59;;;;;;;;;1.00;0.00;;;;;8.46;100.00;100212.63;5092646;27;46396;-80
2023/01/15 05:14:25;;;;;;;;;0.00;0.00;;;;;8.50;100.00;100226.72;5094056;27;45885;-80
2023/01/15 05:16:51;;;;;;;;;0.00;0.00;;;;;8.47;100.00;100226.09;5091198;27;45792;-81
2023/01/15 05:19:16;;;;;;;;;1.00;0.00;;;;;8.45;100.00;100224.59;5090588;27;45411;-81
2023/01/15 05:21:43;;;;;;;;;1.00;0.00;;;;;8.34;100.00;100216.97;5095857;27;45606;-80
2023/01/15 05:24:13;;;;;;;;;0.33;0.00;;;;;8.44;100.00;100229.22;5077207;27;46998;-80
2023/01/15 05:26:38;;;;;;;;;0.00;0.00;;;;;8.42;100.00;100228.53;5083360;27;45750;-81
2023/01/15 05:29:04;;;;;;;;;0.33;0.00;;;;;8.44;100.00;100233.84;5060030;27;45536;-80
2023/01/15 05:31:30;;;;;;;;;0.00;0.00;;;;;8.42;100.00;100222.25;5095209;27;45830;-81
2023/01/15 05:33:56;;;;;;;;;0.00;0.00;;;;;8.41;100.00;100226.88;5094532;27;45554;-80
2023/01/15 05:36:25;;;;;;;;;0.00;0.00;;;;;8.40;100.00;100229.81;5090686;27;45867;-79
2023/01/15 05:38:51;;;;;;;;;0.67;0.00;;;;;8.39;100.00;100244.53;5091971;27;45539;-82
2023/01/15 05:44:07;;;;;;;;;0.00;0.00;;;;;8.38;100.00;100242.84;5099900;27;45910;-79
2023/01/15 05:46:34;;;;;;;;;0.00;0.00;;;;;8.38;100.00;100245.56;5085369;27;46099;-81
2023/01/15 05:49:01;;;;;;;;;0.00;0.00;;;;;8.37;100.00;100254.81;5100170;27;45567;-79
2023/01/15 05:51:28;;;;;;;;;0.00;0.00;;;;;8.29;100.00;100245.78;5096154;27;45672;-81
2023/01/15 05:53:54;;;;;;;;;0.00;0.00;;;;;8.34;100.00;100247.03;5078924;27;47986;-80
2023/01/15 05:56:19;;;;;;;;;0.00;0.00;;;;;8.29;100.00;100259.44;5096769;27;45938;-80
2023/01/15 05:58:44;;;;;;;;;0.33;0.00;;;;;8.29;100.00;100259.44;5102218;27;45464;-80
2023/01/15 06:01:10;;;;;;;;;0.00;0.00;;;;;8.29;100.00;100251.25;5097269;27;45606;-79
2023/01/15 06:03:36;;;;;;;;;0.00;0.00;;;;;8.30;100.00;100268.47;5104714;27;45912;-78
2023/01/15 06:06:02;;;;;;;;;0.00;0.00;;;;;8.29;100.00;100267.63;5083965;27;45813;-80
2023/01/15 06:08:28;;;;;;;;;1.00;0.00;;;;;8.29;100.00;100273.09;5096767;27;45796;-79
2023/01/15 06:10:55;;;;;;;;;0.67;0.00;;;;;8.19;100.00;100275.38;5100103;27;45302;-83
2023/01/15 06:14:03;;;;;;;;;0.00;0.00;;;;;8.20;100.00;100281.66;5113303;27;45436;-88
2023/01/15 06:16:29;;;;;;;;;0.00;0.00;;;;;8.10;100.00;100274.69;5098757;27;45410;-81
2023/01/15 06:18:59;;;;;;;;;0.33;0.00;;;;;8.15;100.00;100289.63;5066125;27;47018;-80
2023/01/15 06:21:24;;;;;;;;;1.00;0.00;;;;;8.11;100.00;100286.47;5100402;27;47591;-78
2023/01/15 06:23:52;;;;;;;;;0.00;0.00;;;;;8.14;100.00;100291.50;5087434;27;45922;-82
2023/01/15 06:26:18;;;;;;;;;0.00;0.00;;;;;8.15;100.00;100298.66;5091754;27;45583;-82
2023/01/15 06:28:44;;;;;;;;;0.00;0.00;;;;;8.04;100.00;100288.31;5076307;27;45841;-80
2023/01/15 06:31:13;;;;;;;;;0.33;0.00;;;;;8.07;100.00;100288.78;5092060;27;45842;-80
2023/01/15 06:33:38;;;;;;;;;0.00;0.00;;;;;8.13;100.00;100312.53;5092713;27;45580;-81
2023/01/15 06:36:06;;;;;;;;;0.00;0.00;;;;;8.16;100.00;100319.47;5077627;27;45950;-79
2023/01/15 06:38:32;;;;;;;;;0.00;0.00;;;;;8.13;100.00;100334.38;5091213;27;45564;-79
2023/01/15 06:41:01;;;;;;;;;0.67;0.00;;;;;8.10;100.00;100340.25;5076002;27;47044;-82
2023/01/15 06:48:56;;;;;;;;;0.00;0.00;;;;;7.87;100.00;100340.53;5090339;27;45492;-82
2023/01/15 06:51:21;;;;;;;;;0.67;0.00;;;;;7.86;100.00;100352.53;5096207;27;45606;-79
2023/01/15 06:53:47;;;;;;;;;0.00;0.00;;;;;7.85;100.00;100364.47;5094788;27;45604;-80
2023/01/15 06:56:14;;;;;;;;;0.00;0.00;;;;;7.81;100.00;100359.63;5092193;27;45525;-80
2023/01/15 06:58:40;;;;;;;;;0.00;0.00;;;;;7.65;100.00;100347.13;5093871;27;45880;-80
2023/01/15 07:01:08;;;;;;;;;0.00;0.00;;;;;7.70;100.00;100374.66;5094700;27;45779;-81
2023/01/15 07:03:34;;;;;;;;;1.00;0.00;;;;;7.68;100.00;100379.47;5090818;27;45630;-80
2023/01/15 07:06:05;;;;;;;;;0.00;0.00;;;;;7.44;100.00;100354.34;5092142;27;45508;-81
2023/01/15 07:08:30;;;;;;;;;0.00;0.00;;;;;7.54;100.00;100373.91;5100080;27;45435;-78
2023/01/15 07:11:01;;;;;;;;;0.00;0.00;;;;;7.49;100.00;100372.84;5098692;27;45625;-78
2023/01/15 07:13:26;;;;;;;;;0.00;0.00;;;;;7.46;100.00;100370.50;5096036;27;46513;-78
2023/01/15 07:15:52;;;;;;;;;0.00;0.00;;;;;7.38;100.00;100368.75;5087022;27;45862;-79
2023/01/15 07:18:18;;;;;;;;;0.00;0.00;;;;;7.30;100.00;100377.09;5092130;27;45638;-80
2023/01/15 07:20:44;;;;;;;;;0.00;0.00;;;;;7.25;100.00;100386.69;5100531;27;45593;-80
2023/01/15 07:23:09;;;;;;;;;0.00;0.00;;;;;7.18;100.00;100385.78;5061740;27;47070;-78
2023/01/15 07:25:35;;;;;;;;;0.00;0.00;;;;;7.17;100.00;100392.28;5088962;27;45454;-79
2023/01/15 07:28:00;;;;;;;;;0.00;0.00;;;;;7.09;100.00;100386.13;5074181;27;45423;-79
2023/01/15 07:30:25;;;;;;;;;0.00;0.00;;;;;7.06;100.00;100403.72;5093996;27;45544;-80
2023/01/15 07:32:51;;;;;;;;;0.00;0.00;;;;;7.07;100.00;100402.69;5088512;27;45885;-79
2023/01/15 07:35:16;;;;;;;;;0.00;0.00;;;;;7.04;100.00;100394.88;5090691;27;45438;-80
2023/01/15 07:37:42;;;;;;;;;1.00;0.00;;;;;7.02;100.00;100403.25;5090065;27;46248;-79
2023/01/15 07:40:09;;;;;;;;;2.33;0.00;;;;;7.01;100.00;100387.09;5089731;27;45898;-81
2023/01/15 07:50:51;;;;;;;;;3.00;0.00;;;;;6.86;100.00;100377.09;5094503;27;45722;-82
2023/01/15 07:53:17;;;;;;;;;0.67;0.00;;;;;6.93;100.00;100385.34;5093079;27;45826;-80
2023/01/15 07:55:43;;;;;;;;;4.67;0.00;;;;;6.93;100.00;100395.38;5098789;27;45992;-80
2023/01/15 07:58:08;;;;;;;;;0.00;0.00;;;;;6.94;100.00;100388.91;5072875;27;45707;-79
2023/01/15 08:00:33;;;;;;;;;0.00;0.00;;;;;6.92;100.00;100385.53;5087781;27;46123;-79
2023/01/15 08:03:00;;;;;;;;;1.33;0.67;;;;;6.83;100.00;100372.03;5103765;27;46347;-80
2023/01/15 08:05:25;;;;;;;;;1.00;0.00;;;;;6.94;100.00;100375.28;5090164;27;45461;-80
2023/01/15 08:07:51;;;;;;;;;1.00;0.00;;;;;6.97;100.00;100385.78;5099942;27;45674;-80
2023/01/15 08:10:16;;;;;;;;;3.00;2.00;;;;;7.02;100.00;100403.25;5092287;27;44764;-81
2023/01/15 08:15:31;;;;;;;;;2.67;1.33;;;;;7.14;100.00;100394.53;5098652;27;45724;-80
2023/01/15 08:17:56;;;;;;;;;3.67;3.00;;;;;7.20;100.00;100394.63;5084106;27;45805;-79
2023/01/15 08:20:24;;;;;;;;;5.00;5.00;;;;;7.27;100.00;100393.84;5102628;27;45453;-79
2023/01/15 08:22:50;;;;;;;;;13.00;7.00;;;;;7.35;100.00;100396.41;5096854;27;45848;-79
2023/01/15 08:25:19;;;;;;;;;4.33;3.00;;;;;7.41;100.00;100392.94;5100601;27;45443;-81
2023/01/15 08:27:45;;;;;;;;;2.00;2.00;;;;;7.43;100.00;100380.75;5119885;27;45516;-81
2023/01/15 08:30:14;;;;;;;;;3.33;2.33;;;;;7.50;100.00;100408.13;5099558;27;45617;-82
2023/01/15 08:32:40;;;;;;;;;2.33;2.33;;;;;7.56;100.00;100418.22;5099641;27;45492;-79
2023/01/15 08:35:06;;;;;;;;;6.33;6.33;;;;;7.62;100.00;100413.00;5097826;27;45335;-78
2023/01/15 08:37:31;;;;;;;;;10.67;8.00;;;;;7.69;100.00;100409.28;5101266;27;45716;-79
2023/01/15 08:39:58;;;;;;;;;5.67;5.33;;;;;7.72;100.00;100397.97;5102761;27;45468;-80
2023/01/15 08:42:24;;;;;;;;;5.33;2.00;;;;;7.82;100.00;100414.00;5100044;27;46125;-79
2023/01/15 08:44:49;;;;;;;;;4.67;3.00;;;;;7.87;100.00;100414.25;5099865;27;45519;-80
2023/01/15 08:47:16;;;;;;;;;1.00;1.00;;;;;7.94;100.00;100415.16;5104441;27;45643;-79
2023/01/15 08:49:42;;;;;;;;;1.00;1.00;;;;;7.99;100.00;100408.25;5093930;27;45900;-80
2023/01/15 08:52:07;;;;;;;;;4.33;2.00;;;;;8.03;100.00;100393.16;5096264;27;46411;-85
2023/01/15 08:54:32;;;;;;;;;1.00;1.00;;;;;8.10;100.00;100397.59;5097048;27;45733;-78
2023/01/15 08:56:59;;;;;;;;;2.67;2.67;;;;;8.16;100.00;100404.16;5076377;27;45355;-80
2023/01/15 08:59:25;;;;;;;;;6.67;6.67;;;;;8.26;100.00;100393.72;5092672;27;45682;-79
2023/01/15 09:01:50;;;;;;;;;3.00;1.67;;;;;8.69;100.00;100375.41;5101222;27;45744;-82
2023/01/15 09:04:17;;;;;;;;;3.00;3.00;;;;;9.46;100.00;100381.41;5072975;27;45451;-81
2023/01/15 09:06:44;;;;;;;;;4.00;3.00;;;;;10.22;100.00;100380.88;5089344;27;45594;-79
2023/01/15 09:09:09;;;;;;;;;4.33;2.33;;;;;10.96;100.00;100391.53;5113460;27;45878;-80
2023/01/15 09:11:39;;;;;;;;;2.00;0.00;;;;;11.56;100.00;100390.28;5105077;27;45887;-82
2023/01/15 09:14:08;;;;;;;;;1.33;1.33;;;;;12.23;100.00;100406.13;5097036;27;45682;-81
2023/01/15 09:16:35;;;;;;;;;1.00;1.00;;;;;12.61;100.00;100399.56;5094383;27;46007;-82
2023/01/15 09:19:01;;;;;;;;;2.33;0.00;;;;;13.05;100.00;100403.84;5095258;27;45836;-81
2023/01/15 09:21:27;;;;;;;;;1.67;1.33;;;;;13.32;100.00;100386.88;5096120;27;45892;-81
2023/01/15 09:23:52;;;;;;;;;4.00;1.00;;;;;13.72;100.00;100393.69;5079480;27;45874;-83
2023/01/15 09:26:28;;;;;;;;;1.67;0.67;;;;;14.07;100.00;100398.38;5102276;27;45563;-81
2023/01/15 09:28:53;;;;;;;;;0.67;0.67;;;;;14.39;100.00;100379.50;5099843;27;45474;-81
2023/01/15 09:31:20;;;;;;;;;2.67;0.67;;;;;14.49;100.00;100373.38;5103044;27;45796;-83
2023/01/15 09:33:45;;;;;;;;;0.00;0.00;;;;;14.59;100.00;100384.59;5081755;27;45644;-82
2023/01/15 09:36:15;;;;;;;;;1.67;0.67;;;;;14.88;100.00;100392.09;5097986;27;45323;-80
2023/01/15 09:38:41;;;;;;;;;3.00;2.00;;;;;15.17;100.00;100395.69;5087552;27;46060;-79
2023/01/15 09:42:04;;;;;;;;;0.33;0.00;;;;;15.33;100.00;100405.94;5097232;27;46071;-80
2023/01/15 09:44:16;;;;;;;;;0.00;0.00;;;;;15.58;100.00;100401.94;5077443;27;45452;-80
2023/01/15 09:47:02;;;;;;;;;1.33;0.67;;;;;15.81;100.00;100400.13;5093181;27;45509;-80
2023/01/15 09:49:44;;;;;;;;;0.00;0.00;;;;;15.74;100.00;100402.19;5096650;27;45787;-80
2023/01/15 09:52:37;;;;;;;;;0.33;0.33;;;;;15.61;100.00;100417.19;5094230;27;45870;-81
2023/01/15 09:55:27;;;;;;;;;3.00;1.67;;;;;15.67;100.00;100411.50;5093286;27;45513;-80
2023/01/15 09:57:58;;;;;;;;;0.67;0.67;;;;;15.78;100.00;100411.66;5083190;27;45657;-80
2023/01/15 10:00:28;;;;;;;;;2.00;0.00;;;;;15.73;100.00;100437.28;5097194;27;45524;-78
2023/01/15 10:02:53;;;;;;;;;0.00;0.00;;;;;15.65;100.00;100432.19;5101708;27;45623;-81
2023/01/15 10:05:27;;;;;;;;;0.00;0.00;;;;;15.61;100.00;100423.53;5104880;27;45441;-85
2023/01/15 10:08:03;;;;;;;;;2.00;0.00;;;;;15.46;100.00;100404.75;5093313;27;45444;-83
2023/01/15 10:10:41;;;;;;;;;0.00;0.00;;;;;15.50;100.00;100414.25;5100242;27;46077;-81
2023/01/15 10:13:21;;;;;;;;;0.33;0.00;;;;;15.53;100.00;100394.38;5095947;27;46148;-82
2023/01/15 10:15:47;;;;;;;;;0.67;0.00;;;;;15.71;100.00;100418.19;5095256;27;45352;-82
2023/01/15 10:18:18;;;;;;;;;0.33;0.33;;;;;15.74;100.00;100421.56;5095396;27;45534;-81
2023/01/15 10:21:07;;;;;;;;;1.00;0.67;;;;;15.74;100.00;100407.72;5101179;27;46043;-86
2023/01/15 10:24:04;;;;;;;;;1.67;0.00;;;;;15.50;100.00;100400.41;5083390;27;47255;-78
2023/01/15 10:26:52;;;;;;;;;2.00;0.33;;;;;15.46;100.00;100401.16;5095201;27;45521;-80
2023/01/15 10:29:25;;;;;;;;;1.67;1.00;;;;;15.39;100.00;100404.09;5092605;27;45794;-81
2023/01/15 10:32:15;;;;;;;;;2.67;2.00;;;;;15.49;100.00;100420.88;5074072;27;46194;-80
2023/01/15 10:35:04;;;;;;;;;2.67;0.33;;;;;15.58;100.00;100418.50;5097976;27;45492;-80
2023/01/15 10:37:37;;;;;;;;;1.00;1.00;;;;;15.50;100.00;100421.69;5089269;27;46196;-81
2023/01/15 10:40:17;;;;;;;;;0.00;0.00;;;;;15.02;100.00;100407.28;5075236;27;45563;-80
2023/01/15 10:43:07;;;;;;;;;1.00;1.00;;;;;14.26;100.00;100413.69;5091218;27;45643;-80
2023/01/15 10:45:41;;;;;;;;;2.00;0.00;;;;;13.46;100.00;100401.34;5095191;27;46029;-79
2023/01/15 10:48:30;;;;;;;;;0.67;0.00;;;;;13.29;100.00;100425.09;5092382;27;45744;-81
2023/01/15 10:50:58;;;;;;;;;0.67;0.67;;;;;13.23;100.00;100422.22;5091640;27;45903;-81
2023/01/15 10:53:39;;;;;;;;;0.00;0.00;;;;;13.20;100.00;100433.69;5089652;27;45598;-80
2023/01/15 10:56:16;;;;;;;;;3.00;2.00;;;;;13.24;100.00;100421.13;5089922;27;45672;-80
2023/01/15 10:58:45;;;;;;;;;4.00;1.67;;;;;13.59;100.00;100431.44;5098614;27;45563;-81
2023/01/15 11:01:22;;;;;;;;;0.33;0.33;;;;;13.64;100.00;100416.09;5095938;27;45785;-80
2023/01/15 11:03:48;;;;;;;;;3.00;2.00;;;;;13.73;100.00;100428.47;5080958;27;46538;-80
2023/01/15 11:06:16;;;;;;;;;1.33;1.33;;;;;13.87;100.00;100429.91;5076262;27;47151;-81
2023/01/15 11:08:45;;;;;;;;;0.00;0.00;;;;;13.86;100.00;100417.22;5063407;27;46427;-81
2023/01/15 11:20:33;;;;;;;;;1.00;1.00;;;;;13.24;100.00;100398.25;5094322;27;45545;-81
2023/01/15 11:23:10;;;;;;;;;2.00;1.33;;;;;13.06;100.00;100399.16;5090874;27;45837;-82
2023/01/15 11:25:38;;;;;;;;;0.00;0.00;;;;;13.11;100.00;100401.22;5092388;27;45518;-81
2023/01/15 11:28:05;;;;;;;;;0.00;0.00;;;;;13.14;100.00;100404.31;5095690;27;46040;-80
2023/01/15 11:30:36;;;;;;;;;3.00;1.00;;;;;13.04;100.00;100396.63;5093829;27;45485;-81
2023/01/15 11:33:03;;;;;;;;;4.67;2.33;;;;;13.07;100.00;100400.84;5075699;27;45884;-80
2023/01/15 11:35:30;;;;;;;;;5.33;4.00;;;;;12.83;100.00;100398.00;5076879;27;45991;-80
2023/01/15 11:38:06;;;;;;;;;7.00;5.67;;;;;12.72;100.00;100393.25;5092937;27;45523;-81
2023/01/15 11:40:32;;;;;;;;;4.67;3.00;;;;;12.63;100.00;100406.50;5095967;27;45962;-81
2023/01/15 11:51:40;;;;;;;;;1.00;1.00;;;;;12.08;100.00;100390.88;5091367;27;45746;-80
2023/01/15 11:54:09;;;;;;;;;6.67;4.67;;;;;12.01;100.00;100392.84;5077873;27;45579;-81
2023/01/15 11:56:35;;;;;;;;;1.67;1.33;;;;;11.98;100.00;100383.13;5096022;27;45860;-81
2023/01/15 11:59:08;;;;;;;;;5.00;1.00;;;;;11.88;100.00;100379.19;5089824;27;45976;-79
2023/01/15 12:01:37;;;;;;;;;0.33;0.00;;;;;11.90;100.00;100371.56;5096333;27;45487;-80
2023/01/15 12:04:07;;;;;;;;;0.33;0.33;;;;;12.07;100.00;100374.59;5094748;27;45806;-78
2023/01/15 12:06:36;;;;;;;;;51.00;36.33;;;;;12.16;100.00;100373.22;5095429;27;46132;-80
2023/01/15 12:09:25;;;;;;;;;3.00;1.33;;;;;12.07;100.00;100364.44;5081173;27;47288;-81
2023/01/15 12:12:26;;;;;;;;;2.00;2.00;;;;;11.90;100.00;100374.31;5106173;27;45551;-85
2023/01/15 12:15:11;;;;;;;;;5.00;2.00;;;;;11.94;100.00;100370.06;5105853;27;45443;-82
2023/01/15 12:18:04;;;;;;;;;3.00;1.00;;;;;12.01;100.00;100337.88;5094468;27;45711;-79
2023/01/15 12:21:13;;;;;;;;;6.67;5.67;;;;;12.10;100.00;100352.16;5092794;27;46166;-80
2023/01/15 12:24:10;;;;;;;;;2.33;2.00;;;;;11.95;100.00;100333.28;5104103;27;45475;-82